OMAM/DHF METAR and TAF weather

Enter ICAO airport designator
Station Type Date Time Source
OMAM METAR 2019/02/18 03:30 UTC NOAA

OMAM 180330Z 32010KT CAVOK 18/11 Q1016 A3002


Station Type Date Time Source
OMAM Decoded METAR 2019/02/18 03:30 UTC NOAA

Station name not available
Feb 17, 2019 - 10:30 PM EST / 2019.02.18 0330 UTC
Wind: from the NW (320 degrees) at 12 MPH (10 KT):0
Visibility: greater than 7 mile(s):0
Temperature: 64 F (18 C)
Dew Point: 51 F (11 C)
Relative Humidity: 63%
Pressure (altimeter): 30.02 in. Hg (1016 hPa)
ob: OMAM 180330Z 32010KT CAVOK 18/11 Q1016 A3002
cycle: 3

Station Type Date Time Source
OMAM TAF 2015/04/12 06:25 UTC NOAA

TAF OMAM 120525Z 1206/1312 16006KT CAVOK
BECMG 1213/1215 04009KT
BECMG 1221/1223 14006KT
BECMG 1309/1311 31013KT


Example: see airport list